Fort Pike — WAA9418 — position and weather

sailwx.info

Track history (hours):
 
Tides and Currents Weather Stations Pressure Air Temp Water Temp Dewpoint Dewpoint Depression Visibility Wind Speed Wind Dir Waves Ship Positions

Fort Pike

Owner: Salisbury Towing Corporation, Chesapeak, VA. More information available from US FCC via Universal Licensing System and Coast Guard Vessel Documentation Center.

Last reported at 2017-Aug-24 09:00 UTC. Time now 2017-Aug-24 08:59 UTC.
Position N 38°56' W 076°25'.

Length 18 m; draft 2.5 m.

Type: Tug. MMSI: 366948310.

Date/timePositionNaut miles runAvg speedWind from/ knotsBaromVisibWave heightAir tempDewpointWater temp
2017-Aug-24 09:00N 38°56' W 076°25'4 7.5
2017-Aug-24 08:27N 38°51' W 076°25'  
2017-Aug-21 07:08N 38°03' W 075°37'63 3.5
2017-Aug-20 13:03N 38°55' W 076°25'1 7.1
2017-Aug-20 12:53N 38°56' W 076°25'3 7.2
2017-Aug-20 12:24N 38°59' W 076°23'3 7.0
2017-Aug-20 11:56N 39°02' W 076°22'3 6.4
2017-Aug-20 11:24N 39°05' W 076°21'2 6.2
2017-Aug-20 11:00N 39°08' W 076°20'3 5.7
2017-Aug-20 10:25N 39°11' W 076°18'2 5.5
2017-Aug-20 10:00N 39°12' W 076°16'3 5.1
2017-Aug-20 09:30N 39°15' W 076°14'2 5.0
2017-Aug-20 09:00N 39°17' W 076°13'3 5.0
2017-Aug-20 08:30N 39°19' W 076°12'3 5.2
2017-Aug-20 08:00N 39°21' W 076°10'3 5.5
2017-Aug-20 07:30N 39°23' W 076°07'3 5.4
2017-Aug-20 07:00N 39°24' W 076°04'3 5.4
2017-Aug-20 06:31N 39°27' W 076°02'3 5.7
2017-Aug-20 06:01N 39°29' W 076°04'3 5.7
2017-Aug-20 05:30N 39°32' W 076°05'2 3.0
2017-Aug-20 05:00N 39°33' W 076°05'2 3.0
2017-Aug-20 04:30N 39°34' W 076°06'2 4.3
2017-Aug-20 04:00N 39°33' W 076°04'2 4.4
2017-Aug-20 03:30N 39°34' W 076°06'2 4.3
2017-Aug-20 02:59N 39°33' W 076°04'0 0.9
2017-Aug-20 02:30N 39°32' W 076°05'3 5.6
2017-Aug-20 02:00N 39°30' W 076°05'3 5.2
2017-Aug-20 01:30N 39°28' W 076°03'3 5.7
2017-Aug-20 01:00N 39°25' W 076°03'3 6.2
2017-Aug-20 00:30N 39°23' W 076°06'11 6.9
2017-Aug-19 22:56N 39°14' W 076°15'3 7.1
2017-Aug-19 22:28N 39°12' W 076°17'16 7.0
2017-Aug-19 20:12N 38°57' W 076°24'124 4.8
2017-Aug-18 18:20N 36°53' W 076°20'3 6.9
2017-Aug-18 17:57N 36°51' W 076°18'2 3.2
2017-Aug-18 17:23N 36°50' W 076°16'1 3.5
2017-Aug-18 17:00N 36°50' W 076°17'0 0.0
2017-Aug-18 16:30N 36°50' W 076°17'0 0.0
2017-Aug-18 16:00N 36°50' W 076°17'0 0.0
2017-Aug-18 15:30N 36°50' W 076°17'0 0.0
2017-Aug-18 15:00N 36°50' W 076°17'0 0.0
2017-Aug-18 14:30N 36°50' W 076°17'0 0.0
2017-Aug-18 13:30N 36°50' W 076°17'0 0.0
2017-Aug-18 13:00N 36°50' W 076°17'0 0.0
2017-Aug-18 12:30N 36°50' W 076°17'0 0.0
2017-Aug-18 11:59N 36°50' W 076°17'0 0.0
2017-Aug-18 11:30N 36°50' W 076°17'0 0.0
2017-Aug-18 11:00N 36°50' W 076°17'0 0.0
2017-Aug-18 10:30N 36°50' W 076°17'0 0.0
2017-Aug-18 10:00N 36°50' W 076°17'0 0.0
2017-Aug-18 09:30N 36°50' W 076°17'0 0.0
2017-Aug-18 09:00N 36°50' W 076°17'0 0.0
2017-Aug-18 08:31N 36°50' W 076°17'0 0.0
2017-Aug-18 08:01N 36°50' W 076°17'0 0.0
2017-Aug-18 07:31N 36°50' W 076°17'0 0.0
2017-Aug-18 07:01N 36°50' W 076°17'0 0.0
2017-Aug-18 06:31N 36°50' W 076°17'0 0.0
2017-Aug-18 06:01N 36°50' W 076°17'0 0.0
2017-Aug-18 05:31N 36°50' W 076°17'0 0.0
2017-Aug-18 05:00N 36°50' W 076°17'0 0.0
2017-Aug-18 04:30N 36°50' W 076°17'0 0.0
2017-Aug-18 04:00N 36°50' W 076°17'0 0.0
2017-Aug-18 03:31N 36°50' W 076°17'0 0.0
2017-Aug-18 03:01N 36°50' W 076°17'0 0.0
2017-Aug-18 02:30N 36°50' W 076°17'0 0.0
2017-Aug-18 02:01N 36°50' W 076°17'0 0.0
2017-Aug-18 01:31N 36°50' W 076°17'0 0.0
2017-Aug-18 01:01N 36°50' W 076°17'0 0.0
2017-Aug-18 00:31N 36°50' W 076°17'0 0.0
2017-Aug-18 00:00N 36°50' W 076°17'0 0.0
2017-Aug-17 23:31N 36°50' W 076°17'0 0.0
2017-Aug-17 23:00N 36°50' W 076°17'0 0.0
2017-Aug-17 22:31N 36°50' W 076°17'0 0.0
2017-Aug-17 22:00N 36°50' W 076°17'0 0.0
2017-Aug-17 21:30N 36°50' W 076°17'0 0.0
2017-Aug-17 21:00N 36°50' W 076°17'0 0.0
2017-Aug-17 20:31N 36°50' W 076°17'0 0.0
2017-Aug-17 20:00N 36°50' W 076°17'0 0.0
2017-Aug-17 19:31N 36°50' W 076°17'0 0.0
2017-Aug-17 19:01N 36°50' W 076°17'1 1.5
2017-Aug-17 18:31N 36°50' W 076°18'0 0.9
2017-Aug-17 18:01N 36°49' W 076°17'0 0.0
2017-Aug-17 17:31N 36°49' W 076°17'0 0.0
2017-Aug-17 17:00N 36°49' W 076°17'1 1.9
2017-Aug-17 16:31N 36°50' W 076°18'0 0.7
2017-Aug-17 15:59N 36°50' W 076°17'0 0.0
2017-Aug-17 15:29N 36°50' W 076°17'0 0.0
2017-Aug-17 14:59N 36°50' W 076°17'0 0.0
2017-Aug-17 14:26N 36°50' W 076°17'  
2017-Aug-14 11:28N 36°50' W 076°17'0 0.0
2017-Aug-14 10:58N 36°50' W 076°17'0 0.0
2017-Aug-14 10:28N 36°50' W 076°17'0 0.0
2017-Aug-14 09:58N 36°50' W 076°17'0 0.0
2017-Aug-14 09:28N 36°50' W 076°17'  
Track history (hours):
 
Tides and Currents Weather Stations Pressure Air Temp Water Temp Dewpoint Dewpoint Depression Visibility Wind Speed Wind Dir Waves Ship Positions

Fort Pike

Owner: Salisbury Towing Corporation, Chesapeak, VA. More information available from US FCC via Universal Licensing System and Coast Guard Vessel Documentation Center.

Last reported at 2017-Aug-24 09:00 UTC. Time now 2017-Aug-24 08:59 UTC.
Position N 38°56' W 076°25'.

Length 18 m; draft 2.5 m.

Type: Tug. MMSI: 366948310.

Date/timePositionNaut miles runAvg speedWind from/ knotsBaromVisibWave heightAir tempDewpointWater temp
2017-Aug-24 09:00N 38°56' W 076°25'4 7.5
2017-Aug-24 08:27N 38°51' W 076°25'  
2017-Aug-21 07:08N 38°03' W 075°37'63 3.5
2017-Aug-20 13:03N 38°55' W 076°25'1 7.1
2017-Aug-20 12:53N 38°56' W 076°25'3 7.2
2017-Aug-20 12:24N 38°59' W 076°23'3 7.0
2017-Aug-20 11:56N 39°02' W 076°22'3 6.4
2017-Aug-20 11:24N 39°05' W 076°21'2 6.2
2017-Aug-20 11:00N 39°08' W 076°20'3 5.7
2017-Aug-20 10:25N 39°11' W 076°18'2 5.5
2017-Aug-20 10:00N 39°12' W 076°16'3 5.1
2017-Aug-20 09:30N 39°15' W 076°14'2 5.0
2017-Aug-20 09:00N 39°17' W 076°13'3 5.0
2017-Aug-20 08:30N 39°19' W 076°12'3 5.2
2017-Aug-20 08:00N 39°21' W 076°10'3 5.5
2017-Aug-20 07:30N 39°23' W 076°07'3 5.4
2017-Aug-20 07:00N 39°24' W 076°04'3 5.4
2017-Aug-20 06:31N 39°27' W 076°02'3 5.7
2017-Aug-20 06:01N 39°29' W 076°04'3 5.7
2017-Aug-20 05:30N 39°32' W 076°05'2 3.0
2017-Aug-20 05:00N 39°33' W 076°05'2 3.0
2017-Aug-20 04:30N 39°34' W 076°06'2 4.3
2017-Aug-20 04:00N 39°33' W 076°04'2 4.4
2017-Aug-20 03:30N 39°34' W 076°06'2 4.3
2017-Aug-20 02:59N 39°33' W 076°04'0 0.9
2017-Aug-20 02:30N 39°32' W 076°05'3 5.6
2017-Aug-20 02:00N 39°30' W 076°05'3 5.2
2017-Aug-20 01:30N 39°28' W 076°03'3 5.7
2017-Aug-20 01:00N 39°25' W 076°03'3 6.2
2017-Aug-20 00:30N 39°23' W 076°06'11 6.9
2017-Aug-19 22:56N 39°14' W 076°15'3 7.1
2017-Aug-19 22:28N 39°12' W 076°17'16 7.0
2017-Aug-19 20:12N 38°57' W 076°24'124 4.8
2017-Aug-18 18:20N 36°53' W 076°20'3 6.9
2017-Aug-18 17:57N 36°51' W 076°18'2 3.2
2017-Aug-18 17:23N 36°50' W 076°16'1 3.5
2017-Aug-18 17:00N 36°50' W 076°17'0 0.0
2017-Aug-18 16:30N 36°50' W 076°17'0 0.0
2017-Aug-18 16:00N 36°50' W 076°17'0 0.0
2017-Aug-18 15:30N 36°50' W 076°17'0 0.0
2017-Aug-18 15:00N 36°50' W 076°17'0 0.0
2017-Aug-18 14:30N 36°50' W 076°17'0 0.0
2017-Aug-18 13:30N 36°50' W 076°17'0 0.0
2017-Aug-18 13:00N 36°50' W 076°17'0 0.0
2017-Aug-18 12:30N 36°50' W 076°17'0 0.0
2017-Aug-18 11:59N 36°50' W 076°17'0 0.0
2017-Aug-18 11:30N 36°50' W 076°17'0 0.0
2017-Aug-18 11:00N 36°50' W 076°17'0 0.0
2017-Aug-18 10:30N 36°50' W 076°17'0 0.0
2017-Aug-18 10:00N 36°50' W 076°17'0 0.0
2017-Aug-18 09:30N 36°50' W 076°17'0 0.0
2017-Aug-18 09:00N 36°50' W 076°17'0 0.0
2017-Aug-18 08:31N 36°50' W 076°17'0 0.0
2017-Aug-18 08:01N 36°50' W 076°17'0 0.0
2017-Aug-18 07:31N 36°50' W 076°17'0 0.0
2017-Aug-18 07:01N 36°50' W 076°17'0 0.0
2017-Aug-18 06:31N 36°50' W 076°17'0 0.0
2017-Aug-18 06:01N 36°50' W 076°17'0 0.0
2017-Aug-18 05:31N 36°50' W 076°17'0 0.0
2017-Aug-18 05:00N 36°50' W 076°17'0 0.0
2017-Aug-18 04:30N 36°50' W 076°17'0 0.0
2017-Aug-18 04:00N 36°50' W 076°17'0 0.0
2017-Aug-18 03:31N 36°50' W 076°17'0 0.0
2017-Aug-18 03:01N 36°50' W 076°17'0 0.0
2017-Aug-18 02:30N 36°50' W 076°17'0 0.0
2017-Aug-18 02:01N 36°50' W 076°17'0 0.0
2017-Aug-18 01:31N 36°50' W 076°17'0 0.0
2017-Aug-18 01:01N 36°50' W 076°17'0 0.0
2017-Aug-18 00:31N 36°50' W 076°17'0 0.0
2017-Aug-18 00:00N 36°50' W 076°17'0 0.0
2017-Aug-17 23:31N 36°50' W 076°17'0 0.0
2017-Aug-17 23:00N 36°50' W 076°17'0 0.0
2017-Aug-17 22:31N 36°50' W 076°17'0 0.0
2017-Aug-17 22:00N 36°50' W 076°17'0 0.0
2017-Aug-17 21:30N 36°50' W 076°17'0 0.0
2017-Aug-17 21:00N 36°50' W 076°17'0 0.0
2017-Aug-17 20:31N 36°50' W 076°17'0 0.0
2017-Aug-17 20:00N 36°50' W 076°17'0 0.0
2017-Aug-17 19:31N 36°50' W 076°17'0 0.0
2017-Aug-17 19:01N 36°50' W 076°17'1 1.5
2017-Aug-17 18:31N 36°50' W 076°18'0 0.9
2017-Aug-17 18:01N 36°49' W 076°17'0 0.0
2017-Aug-17 17:31N 36°49' W 076°17'0 0.0
2017-Aug-17 17:00N 36°49' W 076°17'1 1.9
2017-Aug-17 16:31N 36°50' W 076°18'0 0.7
2017-Aug-17 15:59N 36°50' W 076°17'0 0.0
2017-Aug-17 15:29N 36°50' W 076°17'0 0.0
2017-Aug-17 14:59N 36°50' W 076°17'0 0.0
2017-Aug-17 14:26N 36°50' W 076°17'  
2017-Aug-14 11:28N 36°50' W 076°17'0 0.0
2017-Aug-14 10:58N 36°50' W 076°17'0 0.0
2017-Aug-14 10:28N 36°50' W 076°17'0 0.0
2017-Aug-14 09:58N 36°50' W 076°17'0 0.0
2017-Aug-14 09:28N 36°50' W 076°17'  

Dump ship's entire track history